sensor_id;sensor_type;location;lat;lon;timestamp;pressure;altitude;pressure_sealevel;temperature;humidity
20897;BME280;10608;42.600;23.398;2023-05-16T04:37:19;82856.41;;;-138.15;75.06
20897;BME280;10608;42.600;23.398;2023-05-16T04:39:45;82800.75;;;-138.15;75.49
20897;BME280;10608;42.600;23.398;2023-05-16T04:42:11;82848.47;;;-138.15;76.32
20897;BME280;10608;42.600;23.398;2023-05-16T04:44:37;82840.50;;;-138.15;76.65
20897;BME280;10608;42.600;23.398;2023-05-16T04:47:02;82880.25;;;-138.15;76.75
20897;BME280;10608;42.600;23.398;2023-05-16T04:49:27;82860.38;;;-138.15;76.56
20897;BME280;10608;42.600;23.398;2023-05-16T04:51:53;82864.38;;;-138.15;77.04
20897;BME280;10608;42.600;23.398;2023-05-16T04:54:18;82802.75;;;-138.15;76.73
20897;BME280;10608;42.600;23.398;2023-05-16T04:56:44;82860.38;;;-138.15;76.89
20897;BME280;10608;42.600;23.398;2023-05-16T04:59:09;82872.31;;;-138.15;76.58
20897;BME280;10608;42.600;23.398;2023-05-16T05:01:34;62864.19;;;-138.16;100.00
20897;BME280;10608;42.600;23.398;2023-05-16T05:04:01;82862.38;;;-138.15;76.63
20897;BME280;10608;42.600;23.398;2023-05-16T05:06:26;82840.50;;;-138.15;76.44
20897;BME280;10608;42.600;23.398;2023-05-16T05:08:52;82757.03;;;-138.15;76.02
20897;BME280;10608;42.600;23.398;2023-05-16T05:11:18;82840.50;;;-138.15;76.38
20897;BME280;10608;42.600;23.398;2023-05-16T05:13:44;82838.53;;;-138.15;76.02
20897;BME280;10608;42.600;23.398;2023-05-16T05:16:09;82850.44;;;-138.15;75.77
20897;BME280;10608;42.600;23.398;2023-05-16T05:18:35;82856.41;;;-138.15;76.57
20897;BME280;10608;42.600;23.398;2023-05-16T05:21:00;82768.97;;;-138.15;75.44
20897;BME280;10608;42.600;23.398;2023-05-16T05:23:25;82842.50;;;-138.15;75.75
20897;BME280;10608;42.600;23.398;2023-05-16T05:25:51;82848.47;;;-138.15;75.37
20897;BME280;10608;42.600;23.398;2023-05-16T05:28:16;82794.81;;;-138.15;74.93
20897;BME280;10608;42.600;23.398;2023-05-16T05:30:42;82832.56;;;-138.15;76.44
20897;BME280;10608;42.600;23.398;2023-05-16T05:33:07;82804.75;;;-138.15;76.13
20897;BME280;10608;42.600;23.398;2023-05-16T05:35:33;82788.84;;;-138.15;74.93
20897;BME280;10608;42.600;23.398;2023-05-16T05:37:58;82842.50;;;-138.15;75.75
20897;BME280;10608;42.600;23.398;2023-05-16T05:40:24;82931.94;;;-138.15;75.75
20897;BME280;10608;42.600;23.398;2023-05-16T05:42:49;82840.50;;;-138.15;76.26
20897;BME280;10608;42.600;23.398;2023-05-16T05:45:15;82818.66;;;-138.15;76.06
20897;BME280;10608;42.600;23.398;2023-05-16T05:47:41;82836.53;;;-138.15;77.13
20897;BME280;10608;42.600;23.398;2023-05-16T05:50:07;82846.47;;;-138.15;77.15
20897;BME280;10608;42.600;23.398;2023-05-16T05:52:33;82854.41;;;-138.15;76.85
20897;BME280;10608;42.600;23.398;2023-05-16T05:54:58;82828.59;;;-138.15;77.32
20897;BME280;10608;42.600;23.398;2023-05-16T05:57:24;82826.59;;;-138.15;77.05
20897;BME280;10608;42.600;23.398;2023-05-16T05:59:50;82757.03;;;-138.15;76.46
20897;BME280;10608;42.600;23.398;2023-05-16T06:02:15;82818.66;;;-138.15;77.17
20897;BME280;10608;42.600;23.398;2023-05-16T06:04:41;82800.75;;;-138.15;77.13
20897;BME280;10608;42.600;23.398;2023-05-16T06:07:07;82824.63;;;-138.15;76.78
20897;BME280;10608;42.600;23.398;2023-05-16T06:09:32;82826.59;;;-138.15;76.25
20897;BME280;10608;42.600;23.398;2023-05-16T06:11:57;82816.66;;;-138.15;75.83
20897;BME280;10608;42.600;23.398;2023-05-16T06:14:24;82824.63;;;-138.15;75.63
20897;BME280;10608;42.600;23.398;2023-05-16T06:16:49;82808.72;;;-138.15;75.71
20897;BME280;10608;42.600;23.398;2023-05-16T06:19:15;82776.91;;;-138.15;75.75
20897;BME280;10608;42.600;23.398;2023-05-16T06:21:41;82790.81;;;-138.15;74.63
20897;BME280;10608;42.600;23.398;2023-05-16T06:24:07;82711.34;;;-138.15;73.49
20897;BME280;10608;42.600;23.398;2023-05-16T06:26:32;82655.69;;;-138.15;73.25
20897;BME280;10608;42.600;23.398;2023-05-16T06:28:58;82691.47;;;-138.15;73.42
20897;BME280;10608;42.600;23.398;2023-05-16T06:31:23;82625.88;;;-138.15;72.85
20897;BME280;10608;42.600;23.398;2023-05-16T06:33:49;82623.88;;;-138.15;72.39
20897;BME280;10608;42.600;23.398;2023-05-16T06:36:14;82637.81;;;-138.15;72.92
20897;BME280;10608;42.600;23.398;2023-05-16T06:38:40;82613.97;;;-138.15;72.86
20897;BME280;10608;42.600;23.398;2023-05-16T06:41:05;82621.91;;;-138.15;71.79
20897;BME280;10608;42.600;23.398;2023-05-16T06:43:31;82617.94;;;-138.15;70.75
20897;BME280;10608;42.600;23.398;2023-05-16T06:45:56;82584.16;;;-138.15;70.09
20897;BME280;10608;42.600;23.398;2023-05-16T06:48:21;82534.47;;;-138.15;70.30
20897;BME280;10608;42.600;23.398;2023-05-16T06:50:48;82546.38;;;-138.15;71.13
20897;BME280;10608;42.600;23.398;2023-05-16T06:53:13;82562.28;;;-138.15;70.68
20897;BME280;10608;42.600;23.398;2023-05-16T06:55:39;82538.44;;;-138.15;69.55
20897;BME280;10608;42.600;23.398;2023-05-16T06:58:04;82542.41;;;-138.15;68.74
20897;BME280;10608;42.600;23.398;2023-05-16T07:00:30;82556.31;;;-138.15;69.71
20897;BME280;10608;42.600;23.398;2023-05-16T07:02:55;82554.34;;;-138.15;69.72
20897;BME280;10608;42.600;23.398;2023-05-16T07:05:20;82530.50;;;-138.15;69.39
20897;BME280;10608;42.600;23.398;2023-05-16T07:07:46;82570.22;;;-138.15;68.62
20897;BME280;10608;42.600;23.398;2023-05-16T07:10:13;82496.72;;;-138.15;68.84
20897;BME280;10608;42.600;23.398;2023-05-16T07:12:41;82510.63;;;-138.15;68.40
20897;BME280;10608;42.600;23.398;2023-05-16T07:15:07;82439.06;;;-138.15;67.67
20897;BME280;10608;42.600;23.398;2023-05-16T07:17:33;82379.47;;;-138.15;66.44
20897;BME280;10608;42.600;23.398;2023-05-16T07:19:58;82397.34;;;-138.15;66.01
20897;BME280;10608;42.600;23.398;2023-05-16T07:22:23;82407.28;;;-138.15;66.63
20897;BME280;10608;42.600;23.398;2023-05-16T07:24:49;82393.38;;;-138.15;66.53
20897;BME280;10608;42.600;23.398;2023-05-16T07:27:17;82375.50;;;-138.15;66.47
20897;BME280;10608;42.600;23.398;2023-05-16T07:29:42;82387.41;;;-138.15;66.78
20897;BME280;10608;42.600;23.398;2023-05-16T07:32:08;82331.78;;;-138.15;64.98
20897;BME280;10608;42.600;23.398;2023-05-16T07:34:33;82359.59;;;-138.15;66.30
20897;BME280;10608;42.600;23.398;2023-05-16T07:36:59;82299.97;;;-138.15;64.71
20897;BME280;10608;42.600;23.398;2023-05-16T07:39:24;82355.63;;;-138.15;66.74
20897;BME280;10608;42.600;23.398;2023-05-16T07:41:50;82307.94;;;-138.15;65.33
20897;BME280;10608;42.600;23.398;2023-05-16T07:44:16;82204.59;;;-138.15;64.83
20897;BME280;10608;42.600;23.398;2023-05-16T07:46:41;82290.03;;;-138.15;64.58
20897;BME280;10608;42.600;23.398;2023-05-16T07:49:09;82323.81;;;-138.15;63.68
20897;BME280;10608;42.600;23.398;2023-05-16T07:51:34;82299.97;;;-138.15;63.91
20897;BME280;10608;42.600;23.398;2023-05-16T07:54:00;82321.84;;;-138.15;63.42
20897;BME280;10608;42.600;23.398;2023-05-16T07:56:26;82311.91;;;-138.15;63.29
20897;BME280;10608;42.600;23.398;2023-05-16T07:58:51;82288.06;;;-138.15;63.59
20897;BME280;10608;42.600;23.398;2023-05-16T08:01:17;82305.94;;;-138.15;63.70
20897;BME280;10608;42.600;23.398;2023-05-16T08:03:43;82258.25;;;-138.15;63.34
20897;BME280;10608;42.600;23.398;2023-05-16T08:06:08;82256.25;;;-138.15;63.01
20897;BME280;10608;42.600;23.398;2023-05-16T08:08:34;82222.47;;;-138.15;63.06
20897;BME280;10608;42.600;23.398;2023-05-16T08:11:00;82186.72;;;-138.15;61.95
20897;BME280;10608;42.600;23.398;2023-05-16T08:13:25;82192.66;;;-138.15;61.85
20897;BME280;10608;42.600;23.398;2023-05-16T08:15:50;82212.53;;;-138.15;62.10
20897;BME280;10608;42.600;23.398;2023-05-16T08:18:16;82174.78;;;-138.15;61.67
20897;BME280;10608;42.600;23.398;2023-05-16T08:20:41;82178.75;;;-138.15;61.95
20897;BME280;10608;42.600;23.398;2023-05-16T08:23:07;82176.78;;;-138.15;61.78
20897;BME280;10608;42.600;23.398;2023-05-16T08:25:33;82190.69;;;-138.15;62.43
20897;BME280;10608;42.600;23.398;2023-05-16T08:27:59;82156.91;;;-138.15;62.31
20897;BME280;10608;42.600;23.398;2023-05-16T08:30:26;82156.91;;;-138.15;61.46
20897;BME280;10608;42.600;23.398;2023-05-16T08:32:51;82135.03;;;-138.15;60.65
20897;BME280;10608;42.600;23.398;2023-05-16T08:35:17;82041.66;;;-138.15;61.14
20897;BME280;10608;42.600;23.398;2023-05-16T08:37:42;82039.66;;;-138.15;59.90
20897;BME280;10608;42.600;23.398;2023-05-16T08:40:09;82037.69;;;-138.15;59.01
20897;BME280;10608;42.600;23.398;2023-05-16T08:42:35;82029.75;;;-138.15;58.83
20897;BME280;10608;42.600;23.398;2023-05-16T08:45:02;82041.66;;;-138.15;58.53
20897;BME280;10608;42.600;23.398;2023-05-16T08:47:30;81993.97;;;-138.15;58.18
20897;BME280;10608;42.600;23.398;2023-05-16T08:49:56;81954.22;;;-138.15;58.00
20897;BME280;10608;42.600;23.398;2023-05-16T08:52:25;81874.75;;;-138.15;56.71
20897;BME280;10608;42.600;23.398;2023-05-16T08:54:52;81924.44;;;-138.15;56.65
20897;BME280;10608;42.600;23.398;2023-05-16T08:57:19;81946.28;;;-138.15;57.28
20897;BME280;10608;42.600;23.398;2023-05-16T08:59:45;81892.63;;;-138.15;57.00
20897;BME280;10608;42.600;23.398;2023-05-16T09:02:10;81862.84;;;-138.15;57.48
20897;BME280;10608;42.600;23.398;2023-05-16T09:04:37;81910.53;;;-138.15;56.91
20897;BME280;10608;42.600;23.398;2023-05-16T09:07:03;81906.53;;;-138.15;57.15
20897;BME280;10608;42.600;23.398;2023-05-16T09:09:28;82009.88;;;-138.15;57.86
20897;BME280;10608;42.600;23.398;2023-05-16T09:11:55;82011.84;;;-138.15;57.78
20897;BME280;10608;42.600;23.398;2023-05-16T09:14:20;81982.06;;;-138.15;57.70
20897;BME280;10608;42.600;23.398;2023-05-16T09:17:02;82015.81;;;-138.15;58.40
20897;BME280;10608;42.600;23.398;2023-05-16T09:19:36;81968.13;;;-138.15;57.56
20897;BME280;10608;42.600;23.398;2023-05-16T09:22:02;82011.84;;;-138.15;59.06
20897;BME280;10608;42.600;23.398;2023-05-16T09:24:27;81978.06;;;-138.15;57.60
20897;BME280;10608;42.600;23.398;2023-05-16T09:26:53;81882.69;;;-138.15;57.83
20897;BME280;10608;42.600;23.398;2023-05-16T09:29:18;81970.13;;;-138.15;58.54
20897;BME280;10608;42.600;23.398;2023-05-16T09:31:44;82001.91;;;-138.15;58.72
20897;BME280;10608;42.600;23.398;2023-05-16T09:34:09;82017.81;;;-138.15;58.68
20897;BME280;10608;42.600;23.398;2023-05-16T09:36:38;81986.03;;;-138.15;58.50
20897;BME280;10608;42.600;23.398;2023-05-16T09:39:05;81986.03;;;-138.15;58.43
20897;BME280;10608;42.600;23.398;2023-05-16T09:41:34;82009.88;;;-138.15;59.34
20897;BME280;10608;42.600;23.398;2023-05-16T09:44:04;81874.75;;;-138.15;58.11
20897;BME280;10608;42.600;23.398;2023-05-16T09:46:33;81878.72;;;-138.15;58.25
20897;BME280;10608;42.600;23.398;2023-05-16T09:48:59;81896.59;;;-138.15;57.59
20897;BME280;10608;42.600;23.398;2023-05-16T09:51:25;81868.78;;;-138.15;57.42
20897;BME280;10608;42.600;23.398;2023-05-16T09:53:51;81912.50;;;-138.15;58.57
20897;BME280;10608;42.600;23.398;2023-05-16T09:56:16;81839.00;;;-138.15;58.34
20897;BME280;10608;42.600;23.398;2023-05-16T09:58:43;81842.97;;;-138.15;57.39
20897;BME280;10608;42.600;23.398;2023-05-16T10:01:11;81803.22;;;-138.15;57.82
20897;BME280;10608;42.600;23.398;2023-05-16T10:03:39;81769.44;;;-138.15;57.56
20897;BME280;10608;42.600;23.398;2023-05-16T10:06:05;81739.66;;;-138.15;56.03
20897;BME280;10608;42.600;23.398;2023-05-16T10:08:34;81731.69;;;-138.15;56.47
20897;BME280;10608;42.600;23.398;2023-05-16T10:11:03;81735.66;;;-138.15;55.44
20897;BME280;10608;42.600;23.398;2023-05-16T10:13:31;81769.44;;;-138.15;56.03
20897;BME280;10608;42.600;23.398;2023-05-16T10:15:58;81795.28;;;-138.15;56.51
20897;BME280;10608;42.600;23.398;2023-05-16T10:18:34;81803.22;;;-138.15;56.42
20897;BME280;10608;42.600;23.398;2023-05-16T10:21:08;81872.75;;;-138.15;56.98
20897;BME280;10608;42.600;23.398;2023-05-16T10:23:36;81840.97;;;-138.15;57.44
20897;BME280;10608;42.600;23.398;2023-05-16T10:26:03;81833.03;;;-138.15;56.71
20897;BME280;10608;42.600;23.398;2023-05-16T10:28:30;81813.16;;;-138.15;56.91
20897;BME280;10608;42.600;23.398;2023-05-16T10:30:56;81811.16;;;-138.15;58.34
20897;BME280;10608;42.600;23.398;2023-05-16T10:33:22;81906.53;;;-138.15;58.02
20897;BME280;10608;42.600;23.398;2023-05-16T10:35:47;81846.94;;;-138.15;56.97
20897;BME280;10608;42.600;23.398;2023-05-16T10:38:17;81839.00;;;-138.15;58.03
20897;BME280;10608;42.600;23.398;2023-05-16T10:40:43;81771.44;;;-138.15;56.88
20897;BME280;10608;42.600;23.398;2023-05-16T10:43:09;81731.69;;;-138.15;55.28
20897;BME280;10608;42.600;23.398;2023-05-16T10:45:39;81626.41;;;-138.15;55.62
20897;BME280;10608;42.600;23.398;2023-05-16T10:48:06;81572.75;;;-138.15;54.66
20897;BME280;10608;42.600;23.398;2023-05-16T10:53:19;81465.47;;;-138.15;53.73
20897;BME280;10608;42.600;23.398;2023-05-16T10:55:50;81459.50;;;-138.15;53.58
20897;BME280;10608;42.600;23.398;2023-05-16T11:09:07;81499.25;;;-138.15;52.90
20897;BME280;10608;42.600;23.398;2023-05-16T11:14:26;81491.28;;;-138.15;52.56
20897;BME280;10608;42.600;23.398;2023-05-16T11:17:21;81443.63;;;-138.15;52.99
20897;BME280;10608;42.600;23.398;2023-05-16T11:19:51;81457.53;;;-138.15;52.51
20897;BME280;10608;42.600;23.398;2023-05-16T11:22:30;81441.63;;;-138.15;51.10
20897;BME280;10608;42.600;23.398;2023-05-16T11:24:58;81382.03;;;-138.15;51.53
20897;BME280;10608;42.600;23.398;2023-05-16T11:27:31;81209.19;;;-138.15;50.76
20897;BME280;10608;42.600;23.398;2023-05-16T11:30:03;81219.13;;;-138.15;50.85
20897;BME280;10608;42.600;23.398;2023-05-16T11:32:37;81093.97;;;-138.15;49.35
20897;BME280;10608;42.600;23.398;2023-05-16T11:35:03;81117.81;;;-138.15;48.75
20897;BME280;10608;42.600;23.398;2023-05-16T11:37:29;81002.59;;;-138.15;49.73
20897;BME280;10608;42.600;23.398;2023-05-16T11:40:02;80913.19;;;-138.15;49.70
20897;BME280;10608;42.600;23.398;2023-05-16T11:42:35;80869.50;;;-138.15;46.57
20897;BME280;10608;42.600;23.398;2023-05-16T11:45:26;80869.50;;;-138.15;47.37
20897;BME280;10608;42.600;23.398;2023-05-16T11:47:52;80873.47;;;-138.15;48.18
20897;BME280;10608;42.600;23.398;2023-05-16T11:50:19;80798.00;;;-138.15;46.85
20897;BME280;10608;42.600;23.398;2023-05-16T11:52:52;80780.09;;;-138.15;45.24
20897;BME280;10608;42.600;23.398;2023-05-16T11:55:23;80923.13;;;-138.15;46.70
20897;BME280;10608;42.600;23.398;2023-05-16T11:57:52;80869.50;;;-138.15;48.21
20897;BME280;10608;42.600;23.398;2023-05-16T12:00:23;80835.72;;;-138.15;46.64
20897;BME280;10608;42.600;23.398;2023-05-16T12:02:50;80754.28;;;-138.15;45.27
20897;BME280;10608;42.600;23.398;2023-05-16T12:05:16;80710.59;;;-138.15;46.41
20897;BME280;10608;42.600;23.398;2023-05-16T12:07:43;80615.25;;;-138.15;44.73
20897;BME280;10608;42.600;23.398;2023-05-16T12:10:11;80676.81;;;-138.15;45.49
20897;BME280;10608;42.600;23.398;2023-05-16T12:12:38;80609.28;;;-138.15;44.92
20897;BME280;10608;42.600;23.398;2023-05-16T12:15:06;80702.66;;;-138.15;46.88
20897;BME280;10608;42.600;23.398;2023-05-16T12:17:36;80827.78;;;-138.15;45.27
20897;BME280;10608;42.600;23.398;2023-05-16T12:20:03;80756.28;;;-138.15;46.20
20897;BME280;10608;42.600;23.398;2023-05-16T12:22:35;80738.41;;;-138.15;45.13
20897;BME280;10608;42.600;23.398;2023-05-16T12:27:45;80831.75;;;-138.15;45.91
20897;BME280;10608;42.600;23.398;2023-05-16T12:30:11;80815.88;;;-138.15;46.43
20897;BME280;10608;42.600;23.398;2023-05-16T12:32:37;80903.28;;;-138.15;47.17
20897;BME280;10608;42.600;23.398;2023-05-16T12:35:02;80944.97;;;-138.15;46.04
20897;BME280;10608;42.600;23.398;2023-05-16T12:37:28;81000.59;;;-138.15;47.27
20897;BME280;10608;42.600;23.398;2023-05-16T12:39:59;81034.38;;;-138.15;48.39
20897;BME280;10608;42.600;23.398;2023-05-16T12:42:26;80915.19;;;-138.15;46.31
20897;BME280;10608;42.600;23.398;2023-05-16T12:44:54;80992.66;;;-138.15;46.22
20897;BME280;10608;42.600;23.398;2023-05-16T12:47:20;81002.59;;;-138.15;45.85
20897;BME280;10608;42.600;23.398;2023-05-16T12:49:46;81002.59;;;-138.15;45.28
20897;BME280;10608;42.600;23.398;2023-05-16T12:52:19;81032.38;;;-138.15;46.52
20897;BME280;10608;42.600;23.398;2023-05-16T12:54:46;81016.50;;;-138.15;44.83
20897;BME280;10608;42.600;23.398;2023-05-16T12:57:12;81052.25;;;-138.15;45.68
20897;BME280;10608;42.600;23.398;2023-05-16T12:59:38;80956.91;;;-138.15;44.58
20897;BME280;10608;42.600;23.398;2023-05-16T13:02:03;81010.53;;;-138.15;44.97
20897;BME280;10608;42.600;23.398;2023-05-16T13:04:29;80982.72;;;-138.15;45.00
20897;BME280;10608;42.600;23.398;2023-05-16T13:06:55;80937.03;;;-138.15;46.12
20897;BME280;10608;42.600;23.398;2023-05-16T13:09:21;80798.00;;;-138.15;45.18
20897;BME280;10608;42.600;23.398;2023-05-16T13:11:47;80658.94;;;-138.15;44.97
20897;BME280;10608;42.600;23.398;2023-05-16T13:14:12;80619.22;;;-138.15;44.93
20897;BME280;10608;42.600;23.398;2023-05-16T13:16:38;80476.22;;;-138.15;43.94
20897;BME280;10608;42.600;23.398;2023-05-16T13:19:03;80394.78;;;-138.15;43.31
20897;BME280;10608;42.600;23.398;2023-05-16T13:21:29;80376.91;;;-138.15;42.15
20897;BME280;10608;42.600;23.398;2023-05-16T13:23:56;80251.78;;;-138.15;42.10
20897;BME280;10608;42.600;23.398;2023-05-16T13:26:22;80220.00;;;-138.15;40.87
20897;BME280;10608;42.600;23.398;2023-05-16T13:28:48;80190.19;;;-138.15;41.58
20897;BME280;10608;42.600;23.398;2023-05-16T13:31:17;80134.59;;;-138.15;43.06
20897;BME280;10608;42.600;23.398;2023-05-16T13:33:42;80126.66;;;-138.15;43.55
20897;BME280;10608;42.600;23.398;2023-05-16T13:36:08;80241.84;;;-138.15;42.48
20897;BME280;10608;42.600;23.398;2023-05-16T13:38:33;80261.69;;;-138.15;43.46
20897;BME280;10608;42.600;23.398;2023-05-16T13:40:59;80291.50;;;-138.15;44.46
20897;BME280;10608;42.600;23.398;2023-05-16T13:43:24;80267.66;;;-138.15;44.70
20897;BME280;10608;42.600;23.398;2023-05-16T13:45:49;80345.13;;;-138.15;45.68
20897;BME280;10608;42.600;23.398;2023-05-16T13:48:15;80349.09;;;-138.15;46.46
20897;BME280;10608;42.600;23.398;2023-05-16T13:50:40;80476.22;;;-138.15;49.11
20897;BME280;10608;42.600;23.398;2023-05-16T13:53:06;80565.59;;;-138.15;48.53
20897;BME280;10608;42.600;23.398;2023-05-16T13:55:32;80583.47;;;-138.15;47.17
20897;BME280;10608;42.600;23.398;2023-05-16T13:57:57;80674.84;;;-138.15;49.06
20897;BME280;10608;42.600;23.398;2023-05-16T14:00:24;80680.78;;;-138.15;49.59
20897;BME280;10608;42.600;23.398;2023-05-16T14:02:51;80704.63;;;-138.15;49.72
20897;BME280;10608;42.600;23.398;2023-05-16T14:05:17;80714.56;;;-138.15;51.27
20897;BME280;10608;42.600;23.398;2023-05-16T14:07:42;80762.22;;;-138.15;51.70
20897;BME280;10608;42.600;23.398;2023-05-16T14:10:08;80881.41;;;-138.15;51.42
20897;BME280;10608;42.600;23.398;2023-05-16T14:12:33;80887.38;;;-138.15;50.67
20897;BME280;10608;42.600;23.398;2023-05-16T14:14:59;80877.44;;;-138.15;51.45
20897;BME280;10608;42.600;23.398;2023-05-16T14:17:24;80829.78;;;-138.15;53.86
20897;BME280;10608;42.600;23.398;2023-05-16T14:19:51;81072.13;;;-138.15;50.58
20897;BME280;10608;42.600;23.398;2023-05-16T14:22:17;81103.91;;;-138.15;55.82
20897;BME280;10608;42.600;23.398;2023-05-16T14:24:43;80980.75;;;-138.15;56.17
20897;BME280;10608;42.600;23.398;2023-05-16T14:27:08;81010.53;;;-138.15;54.41
20897;BME280;10608;42.600;23.398;2023-05-16T14:29:34;80944.97;;;-138.15;52.61
20897;BME280;10608;42.600;23.398;2023-05-16T14:31:59;80982.72;;;-138.15;57.45
20897;BME280;10608;42.600;23.398;2023-05-16T14:34:25;80974.78;;;-138.15;60.63
20897;BME280;10608;42.600;23.398;2023-05-16T14:36:50;81119.78;;;-138.15;61.71
20897;BME280;10608;42.600;23.398;2023-05-16T14:39:15;81133.69;;;-138.15;60.44
20897;BME280;10608;42.600;23.398;2023-05-16T14:41:41;81167.47;;;-138.15;59.92
20897;BME280;10608;42.600;23.398;2023-05-16T14:44:07;81187.34;;;-138.15;60.93
20897;BME280;10608;42.600;23.398;2023-05-16T14:46:32;81165.50;;;-138.15;60.53
20897;BME280;10608;42.600;23.398;2023-05-16T14:48:58;81233.03;;;-138.15;61.85
20897;BME280;10608;42.600;23.398;2023-05-16T14:51:23;81272.75;;;-138.15;61.93
20897;BME280;10608;42.600;23.398;2023-05-16T14:53:48;81318.47;;;-138.15;64.09
20897;BME280;10608;42.600;23.398;2023-05-16T14:56:14;81298.59;;;-138.15;64.72
20897;BME280;10608;42.600;23.398;2023-05-16T14:58:40;81294.63;;;-138.15;64.58
20897;BME280;10608;42.600;23.398;2023-05-16T15:01:05;81260.84;;;-138.15;65.75
20897;BME280;10608;42.600;23.398;2023-05-16T15:03:31;81254.88;;;-138.15;67.22
20897;BME280;10608;42.600;23.398;2023-05-16T15:05:57;81235.03;;;-138.15;66.72
20897;BME280;10608;42.600;23.398;2023-05-16T15:08:23;81223.09;;;-138.15;66.77
20897;BME280;10608;42.600;23.398;2023-05-16T15:10:48;81139.66;;;-138.15;66.25
20897;BME280;10608;42.600;23.398;2023-05-16T15:13:14;81225.09;;;-138.15;66.24
20897;BME280;10608;42.600;23.398;2023-05-16T15:15:39;81223.09;;;-138.15;63.98
20897;BME280;10608;42.600;23.398;2023-05-16T15:18:06;81187.34;;;-138.15;64.22
20897;BME280;10608;42.600;23.398;2023-05-16T15:20:31;81189.31;;;-138.15;63.98
20897;BME280;10608;42.600;23.398;2023-05-16T15:22:57;81169.47;;;-138.15;63.29
20897;BME280;10608;42.600;23.398;2023-05-16T15:25:22;81231.03;;;-138.15;63.83
20897;BME280;10608;42.600;23.398;2023-05-16T15:27:48;81235.03;;;-138.15;64.65
20897;BME280;10608;42.600;23.398;2023-05-16T15:30:13;81266.81;;;-138.15;65.87
20897;BME280;10608;42.600;23.398;2023-05-16T15:32:39;81399.91;;;-138.15;67.83
20897;BME280;10608;42.600;23.398;2023-05-16T15:35:05;81441.63;;;-138.15;68.49
20897;BME280;10608;42.600;23.398;2023-05-16T15:37:30;81473.41;;;-138.15;67.57
20897;BME280;10608;42.600;23.398;2023-05-16T15:39:56;81362.16;;;-138.15;68.30
20897;BME280;10608;42.600;23.398;2023-05-16T15:42:21;81372.09;;;-138.15;68.72
20897;BME280;10608;42.600;23.398;2023-05-16T15:44:46;81391.97;;;-138.15;68.51
20897;BME280;10608;42.600;23.398;2023-05-16T15:47:12;81386.00;;;-138.15;67.28
20897;BME280;10608;42.600;23.398;2023-05-16T15:49:37;81370.09;;;-138.15;67.04
20897;BME280;10608;42.600;23.398;2023-05-16T15:52:03;81362.16;;;-138.15;67.27
20897;BME280;10608;42.600;23.398;2023-05-16T15:54:29;81358.19;;;-138.15;67.54
20897;BME280;10608;42.600;23.398;2023-05-16T15:56:55;81346.28;;;-138.15;68.13
20897;BME280;10608;42.600;23.398;2023-05-16T15:59:21;81382.03;;;-138.15;69.13
20897;BME280;10608;42.600;23.398;2023-05-16T16:01:47;81413.81;;;-138.15;69.26
20897;BME280;10608;42.600;23.398;2023-05-16T16:04:12;81386.00;;;-138.15;68.85
20897;BME280;10608;42.600;23.398;2023-05-16T16:06:37;81366.13;;;-138.15;66.84
20897;BME280;10608;42.600;23.398;2023-05-16T16:09:03;81368.13;;;-138.15;66.75
20897;BME280;10608;42.600;23.398;2023-05-16T16:11:28;81372.09;;;-138.15;67.12
20897;BME280;10608;42.600;23.398;2023-05-16T16:13:54;81409.84;;;-138.15;64.30
20897;BME280;10608;42.600;23.398;2023-05-16T16:16:19;81364.16;;;-138.15;64.29
20897;BME280;10608;42.600;23.398;2023-05-16T16:18:44;81407.84;;;-138.15;64.79
20897;BME280;10608;42.600;23.398;2023-05-16T16:21:10;81417.78;;;-138.15;65.16
20897;BME280;10608;42.600;23.398;2023-05-16T16:23:37;81413.81;;;-138.15;65.26
20897;BME280;10608;42.600;23.398;2023-05-16T16:26:03;81409.84;;;-138.15;66.31
20897;BME280;10608;42.600;23.398;2023-05-16T16:28:29;81505.19;;;-138.15;66.61
20897;BME280;10608;42.600;23.398;2023-05-16T16:30:54;81527.06;;;-138.15;67.43
20897;BME280;10608;42.600;23.398;2023-05-16T16:33:19;81531.03;;;-138.15;66.04
20897;BME280;10608;42.600;23.398;2023-05-16T16:35:45;81586.66;;;-138.15;68.30
20897;BME280;10608;42.600;23.398;2023-05-16T16:38:10;81688.00;;;-138.15;68.50
20897;BME280;10608;42.600;23.398;2023-05-16T16:40:36;81620.44;;;-138.15;69.63
20897;BME280;10608;42.600;23.398;2023-05-16T16:43:01;81600.56;;;-138.15;71.75
20897;BME280;10608;42.600;23.398;2023-05-16T16:45:29;81689.97;;;-138.15;73.99
20897;BME280;10608;42.600;23.398;2023-05-16T16:47:55;81906.53;;;-138.15;78.04
20897;BME280;10608;42.600;23.398;2023-05-16T16:50:20;81846.94;;;-138.15;80.72
20897;BME280;10608;42.600;23.398;2023-05-16T16:52:46;81988.00;;;-138.15;82.50
20897;BME280;10608;42.600;23.398;2023-05-16T16:55:11;82049.59;;;-138.15;84.07
20897;BME280;10608;42.600;23.398;2023-05-16T16:57:40;82280.09;;;-138.15;85.29
20897;BME280;10608;42.600;23.398;2023-05-16T17:00:06;82162.88;;;-138.15;85.46
20897;BME280;10608;42.600;23.398;2023-05-16T17:02:32;82176.78;;;-138.15;85.88
20897;BME280;10608;42.600;23.398;2023-05-16T17:04:57;82156.91;;;-138.15;84.94
20897;BME280;10608;42.600;23.398;2023-05-16T17:07:23;82234.41;;;-138.15;85.07
20897;BME280;10608;42.600;23.398;2023-05-16T17:09:48;82264.22;;;-138.15;81.55
20897;BME280;10608;42.600;23.398;2023-05-16T17:12:14;82244.34;;;-138.15;79.75
20897;BME280;10608;42.600;23.398;2023-05-16T17:14:47;82286.06;;;-138.15;77.67
20897;BME280;10608;42.600;23.398;2023-05-16T17:17:17;82341.72;;;-138.15;78.32
20897;BME280;10608;42.600;23.398;2023-05-16T17:19:45;82359.59;;;-138.15;78.36
20897;BME280;10608;42.600;23.398;2023-05-16T17:22:11;82383.44;;;-138.15;78.27